Terminal Aerodrome Forecast
Issued by NWS Anchorage, AK

Home | Current Version | Previous Version | Text Only | Print | Product List | Glossary On
Versions: 1 2 3 4 5 6 7 8 9 10 11 12 13 14 15 16 17
000
FTAK31 PANC 232340
TAFANC
TAF
PANC 232340Z 2400/2506 21012G20KT P6SM FEW070 SCT200
      TEMPO 2400/2404 29011KT
     FM240800 16015G22KT P6SM SCT060 BKN090
     FM242300 23008KT P6SM BKN060=

USA.gov is the U.S. government's official web portal to all federal, state and local government web resources and services.